sensor_id;sensor_type;location;lat;lon;timestamp;pressure;altitude;pressure_sealevel;temperature;humidity
52319;BME280;38258;51.148;14.068;2023-04-06T00:00:44;98753.50;;;-2.93;100.00
52319;BME280;38258;51.148;14.068;2023-04-06T00:03:10;98766.53;;;-2.86;100.00
52319;BME280;38258;51.148;14.068;2023-04-06T00:05:37;98758.53;;;-2.96;100.00
52319;BME280;38258;51.148;14.068;2023-04-06T00:08:04;98761.41;;;-2.86;100.00
52319;BME280;38258;51.148;14.068;2023-04-06T00:10:32;98727.34;;;-3.12;100.00
52319;BME280;38258;51.148;14.068;2023-04-06T00:12:59;98761.66;;;-3.05;100.00
52319;BME280;38258;51.148;14.068;2023-04-06T00:15:26;98760.88;;;-3.03;100.00
52319;BME280;38258;51.148;14.068;2023-04-06T00:17:53;98757.13;;;-2.87;100.00
52319;BME280;38258;51.148;14.068;2023-04-06T00:20:20;98757.94;;;-2.88;100.00
52319;BME280;38258;51.148;14.068;2023-04-06T00:22:46;98752.38;;;-3.02;100.00
52319;BME280;38258;51.148;14.068;2023-04-06T00:25:13;98755.56;;;-3.09;100.00
52319;BME280;38258;51.148;14.068;2023-04-06T00:27:42;98723.31;;;-3.04;100.00
52319;BME280;38258;51.148;14.068;2023-04-06T00:30:09;98751.09;;;-2.89;100.00
52319;BME280;38258;51.148;14.068;2023-04-06T00:32:36;98755.81;;;-2.74;100.00
52319;BME280;38258;51.148;14.068;2023-04-06T00:35:03;98750.44;;;-2.81;100.00
52319;BME280;38258;51.148;14.068;2023-04-06T00:37:30;98753.91;;;-2.81;100.00
52319;BME280;38258;51.148;14.068;2023-04-06T00:39:57;98763.91;;;-2.87;100.00
52319;BME280;38258;51.148;14.068;2023-04-06T00:42:24;98755.72;;;-3.04;100.00
52319;BME280;38258;51.148;14.068;2023-04-06T00:44:53;98753.03;;;-3.09;100.00
52319;BME280;38258;51.148;14.068;2023-04-06T00:47:20;98745.44;;;-3.06;100.00
52319;BME280;38258;51.148;14.068;2023-04-06T00:49:48;98745.19;;;-3.14;100.00
52319;BME280;38258;51.148;14.068;2023-04-06T00:52:15;98743.78;;;-3.31;100.00
52319;BME280;38258;51.148;14.068;2023-04-06T00:54:44;98733.38;;;-3.36;100.00
52319;BME280;38258;51.148;14.068;2023-04-06T00:57:12;98742.13;;;-3.29;100.00
52319;BME280;38258;51.148;14.068;2023-04-06T00:59:41;98748.06;;;-3.30;100.00
52319;BME280;38258;51.148;14.068;2023-04-06T01:02:12;98744.88;;;-3.23;100.00
52319;BME280;38258;51.148;14.068;2023-04-06T01:04:46;98734.72;;;-3.47;100.00
52319;BME280;38258;51.148;14.068;2023-04-06T01:07:22;98743.63;;;-3.36;100.00
52319;BME280;38258;51.148;14.068;2023-04-06T01:10:02;98741.69;;;-3.43;100.00
52319;BME280;38258;51.148;14.068;2023-04-06T01:12:31;98723.56;;;-3.49;100.00
52319;BME280;38258;51.148;14.068;2023-04-06T01:15:01;98742.69;;;-3.64;100.00
52319;BME280;38258;51.148;14.068;2023-04-06T01:17:32;98737.66;;;-3.62;100.00
52319;BME280;38258;51.148;14.068;2023-04-06T01:20:07;98733.94;;;-3.71;100.00
52319;BME280;38258;51.148;14.068;2023-04-06T01:22:36;98729.72;;;-3.70;100.00
52319;BME280;38258;51.148;14.068;2023-04-06T01:25:04;98732.56;;;-3.61;100.00
52319;BME280;38258;51.148;14.068;2023-04-06T01:27:46;98735.31;;;-3.80;100.00
52319;BME280;38258;51.148;14.068;2023-04-06T01:30:20;98731.56;;;-3.90;100.00
52319;BME280;38258;51.148;14.068;2023-04-06T01:32:53;98743.63;;;-3.86;100.00
52319;BME280;38258;51.148;14.068;2023-04-06T01:35:31;98738.03;;;-3.76;100.00
52319;BME280;38258;51.148;14.068;2023-04-06T01:38:10;98744.19;;;-3.95;100.00
52319;BME280;38258;51.148;14.068;2023-04-06T01:40:37;98744.63;;;-4.07;100.00
52319;BME280;38258;51.148;14.068;2023-04-06T01:43:05;98744.56;;;-4.08;100.00
52319;BME280;38258;51.148;14.068;2023-04-06T01:45:44;98746.41;;;-4.04;100.00
52319;BME280;38258;51.148;14.068;2023-04-06T01:48:22;98747.88;;;-4.11;100.00
52319;BME280;38258;51.148;14.068;2023-04-06T01:50:49;98741.75;;;-4.16;100.00
52319;BME280;38258;51.148;14.068;2023-04-06T01:53:23;98730.25;;;-4.28;100.00
52319;BME280;38258;51.148;14.068;2023-04-06T01:55:51;98746.09;;;-4.14;100.00
52319;BME280;38258;51.148;14.068;2023-04-06T01:58:25;98746.09;;;-4.14;100.00
52319;BME280;38258;51.148;14.068;2023-04-06T02:00:52;98741.13;;;-4.09;100.00
52319;BME280;38258;51.148;14.068;2023-04-06T02:03:19;98743.50;;;-4.38;100.00
52319;BME280;38258;51.148;14.068;2023-04-06T02:05:48;98747.63;;;-4.42;100.00
52319;BME280;38258;51.148;14.068;2023-04-06T02:08:27;98745.00;;;-4.43;100.00
52319;BME280;38258;51.148;14.068;2023-04-06T02:10:53;98749.69;;;-4.31;100.00
52319;BME280;38258;51.148;14.068;2023-04-06T02:13:35;98745.94;;;-4.41;100.00
52319;BME280;38258;51.148;14.068;2023-04-06T02:16:02;98742.25;;;-4.49;100.00
52319;BME280;38258;51.148;14.068;2023-04-06T02:18:29;98745.00;;;-4.43;100.00
52319;BME280;38258;51.148;14.068;2023-04-06T02:20:56;98736.03;;;-4.56;100.00
52319;BME280;38258;51.148;14.068;2023-04-06T02:23:23;98746.00;;;-4.40;100.00
52319;BME280;38258;51.148;14.068;2023-04-06T02:25:51;98741.47;;;-4.47;100.00
52319;BME280;38258;51.148;14.068;2023-04-06T02:28:18;98745.38;;;-4.57;100.00
52319;BME280;38258;51.148;14.068;2023-04-06T02:30:45;98736.78;;;-4.59;100.00
52319;BME280;38258;51.148;14.068;2023-04-06T02:33:12;98739.69;;;-4.49;100.00
52319;BME280;38258;51.148;14.068;2023-04-06T02:35:44;98738.59;;;-4.56;100.00
52319;BME280;38258;51.148;14.068;2023-04-06T02:38:11;98735.41;;;-4.50;100.00
52319;BME280;38258;51.148;14.068;2023-04-06T02:40:37;98739.63;;;-4.51;100.00
52319;BME280;38258;51.148;14.068;2023-04-06T02:43:20;98734.88;;;-4.42;100.00
52319;BME280;38258;51.148;14.068;2023-04-06T02:45:49;98742.19;;;-4.51;100.00
52319;BME280;38258;51.148;14.068;2023-04-06T02:48:17;98734.50;;;-4.51;100.00
52319;BME280;38258;51.148;14.068;2023-04-06T02:50:44;98729.53;;;-4.71;100.00
52319;BME280;38258;51.148;14.068;2023-04-06T02:53:11;98734.97;;;-4.61;100.00
52319;BME280;38258;51.148;14.068;2023-04-06T02:55:39;98735.38;;;-4.73;100.00
52319;BME280;38258;51.148;14.068;2023-04-06T02:58:06;98719.31;;;-4.93;100.00
52319;BME280;38258;51.148;14.068;2023-04-06T03:00:46;98737.66;;;-4.81;100.00
52319;BME280;38258;51.148;14.068;2023-04-06T03:03:12;98739.09;;;-4.88;100.00
52319;BME280;38258;51.148;14.068;2023-04-06T03:05:41;98738.88;;;-4.94;100.00
52319;BME280;38258;51.148;14.068;2023-04-06T03:08:08;98733.88;;;-4.91;100.00
52319;BME280;38258;51.148;14.068;2023-04-06T03:10:42;98738.91;;;-4.92;100.00
52319;BME280;38258;51.148;14.068;2023-04-06T03:13:08;98728.78;;;-4.91;100.00
52319;BME280;38258;51.148;14.068;2023-04-06T03:15:49;98730.25;;;-4.96;100.00
52319;BME280;38258;51.148;14.068;2023-04-06T03:18:21;98726.44;;;-5.07;100.00
52319;BME280;38258;51.148;14.068;2023-04-06T03:20:49;98736.97;;;-4.98;100.00
52319;BME280;38258;51.148;14.068;2023-04-06T03:23:17;98734.91;;;-4.86;100.00
52319;BME280;38258;51.148;14.068;2023-04-06T03:25:46;98740.47;;;-4.96;100.00
52319;BME280;38258;51.148;14.068;2023-04-06T03:28:16;98738.50;;;-5.03;100.00
52319;BME280;38258;51.148;14.068;2023-04-06T03:30:55;98736.25;;;-5.17;100.00
52319;BME280;38258;51.148;14.068;2023-04-06T03:33:45;98740.38;;;-5.20;100.00
52319;BME280;38258;51.148;14.068;2023-04-06T03:36:22;98733.28;;;-5.28;100.00
52319;BME280;38258;51.148;14.068;2023-04-06T03:38:49;98736.25;;;-5.17;100.00
52319;BME280;38258;51.148;14.068;2023-04-06T03:41:16;98716.75;;;-5.37;100.00
52319;BME280;38258;51.148;14.068;2023-04-06T03:43:50;98736.63;;;-5.07;100.00
52319;BME280;38258;51.148;14.068;2023-04-06T03:46:18;98743.97;;;-4.94;100.00
52319;BME280;38258;51.148;14.068;2023-04-06T03:48:48;98739.75;;;-5.15;100.00
52319;BME280;38258;51.148;14.068;2023-04-06T03:51:17;98743.41;;;-5.08;100.00
52319;BME280;38258;51.148;14.068;2023-04-06T03:53:44;98742.38;;;-5.13;100.00
52319;BME280;38258;51.148;14.068;2023-04-06T03:56:11;98740.81;;;-5.31;100.00
52319;BME280;38258;51.148;14.068;2023-04-06T03:58:38;98723.72;;;-5.33;100.00
52319;BME280;38258;51.148;14.068;2023-04-06T04:01:04;98751.94;;;-5.07;100.00
52319;BME280;38258;51.148;14.068;2023-04-06T04:03:33;98750.56;;;-4.99;100.00
52319;BME280;38258;51.148;14.068;2023-04-06T04:06:00;98742.91;;;-5.20;100.00
52319;BME280;38258;51.148;14.068;2023-04-06T04:08:27;98758.59;;;-5.32;100.00
52319;BME280;38258;51.148;14.068;2023-04-06T04:10:54;98755.44;;;-5.27;100.00
52319;BME280;38258;51.148;14.068;2023-04-06T04:13:21;98753.06;;;-5.43;100.00
52319;BME280;38258;51.148;14.068;2023-04-06T04:15:50;98751.75;;;-5.55;100.00
52319;BME280;38258;51.148;14.068;2023-04-06T04:18:18;98752.78;;;-5.49;100.00
52319;BME280;38258;51.148;14.068;2023-04-06T04:20:46;98747.97;;;-5.43;100.00
52319;BME280;38258;51.148;14.068;2023-04-06T04:23:13;98753.47;;;-5.54;100.00
52319;BME280;38258;51.148;14.068;2023-04-06T04:25:40;98754.22;;;-5.56;100.00
52319;BME280;38258;51.148;14.068;2023-04-06T04:28:07;98757.16;;;-5.47;100.00
52319;BME280;38258;51.148;14.068;2023-04-06T04:30:35;98757.03;;;-5.50;100.00
52319;BME280;38258;51.148;14.068;2023-04-06T04:33:07;98742.25;;;-5.59;100.00
52319;BME280;38258;51.148;14.068;2023-04-06T04:35:34;98762.53;;;-5.60;100.00
52319;BME280;38258;51.148;14.068;2023-04-06T04:38:02;98756.75;;;-5.36;100.00
52319;BME280;38258;51.148;14.068;2023-04-06T04:40:30;98756.03;;;-5.54;100.00
52319;BME280;38258;51.148;14.068;2023-04-06T04:43:05;98755.84;;;-5.58;100.00
52319;BME280;38258;51.148;14.068;2023-04-06T04:45:33;98759.13;;;-5.40;100.00
52319;BME280;38258;51.148;14.068;2023-04-06T04:48:13;98762.38;;;-5.44;100.00
52319;BME280;38258;51.148;14.068;2023-04-06T04:50:50;98753.06;;;-5.43;100.00
52319;BME280;38258;51.148;14.068;2023-04-06T04:53:21;98752.38;;;-5.39;100.00
52319;BME280;38258;51.148;14.068;2023-04-06T04:55:49;98758.19;;;-5.22;100.00
52319;BME280;38258;51.148;14.068;2023-04-06T04:58:17;98752.88;;;-5.27;100.00
52319;BME280;38258;51.148;14.068;2023-04-06T05:00:55;98755.75;;;-5.19;100.00
52319;BME280;38258;51.148;14.068;2023-04-06T05:03:23;98753.06;;;-5.22;100.00
52319;BME280;38258;51.148;14.068;2023-04-06T05:06:00;98750.13;;;-5.10;100.00
52319;BME280;38258;51.148;14.068;2023-04-06T05:08:32;98757.50;;;-4.95;100.00
52319;BME280;38258;51.148;14.068;2023-04-06T05:11:00;98754.91;;;-4.97;100.00
52319;BME280;38258;51.148;14.068;2023-04-06T05:13:30;98755.94;;;-4.91;100.00
52319;BME280;38258;51.148;14.068;2023-04-06T05:15:59;98753.38;;;-4.93;100.00
52319;BME280;38258;51.148;14.068;2023-04-06T05:18:29;98754.16;;;-4.73;100.00
52319;BME280;38258;51.148;14.068;2023-04-06T05:20:57;98757.00;;;-4.65;100.00
52319;BME280;38258;51.148;14.068;2023-04-06T05:23:33;98761.28;;;-4.64;100.00
52319;BME280;38258;51.148;14.068;2023-04-06T05:26:02;98749.19;;;-4.45;100.00
52319;BME280;38258;51.148;14.068;2023-04-06T05:28:29;98766.72;;;-4.32;100.00
52319;BME280;38258;51.148;14.068;2023-04-06T05:30:56;98769.94;;;-4.13;100.00
52319;BME280;38258;51.148;14.068;2023-04-06T05:33:25;98768.81;;;-4.21;100.00
52319;BME280;38258;51.148;14.068;2023-04-06T05:36:13;98770.00;;;-4.12;100.00
52319;BME280;38258;51.148;14.068;2023-04-06T05:38:44;98772.75;;;-4.07;100.00
52319;BME280;38258;51.148;14.068;2023-04-06T05:41:31;98774.09;;;-3.92;100.00
52319;BME280;38258;51.148;14.068;2023-04-06T05:43:58;98774.41;;;-3.83;100.00
52319;BME280;38258;51.148;14.068;2023-04-06T05:46:26;98756.56;;;-3.57;100.00
52319;BME280;38258;51.148;14.068;2023-04-06T05:48:55;98765.63;;;-3.41;100.00
52319;BME280;38258;51.148;14.068;2023-04-06T05:51:25;98771.16;;;-3.29;100.00
52319;BME280;38258;51.148;14.068;2023-04-06T05:53:54;98770.44;;;-3.24;100.00
52319;BME280;38258;51.148;14.068;2023-04-06T05:56:21;98776.88;;;-3.10;100.00
52319;BME280;38258;51.148;14.068;2023-04-06T05:58:49;98772.50;;;-3.13;100.00
52319;BME280;38258;51.148;14.068;2023-04-06T06:01:22;98771.28;;;-2.98;100.00
52319;BME280;38258;51.148;14.068;2023-04-06T06:03:49;98769.78;;;-2.91;100.00
52319;BME280;38258;51.148;14.068;2023-04-06T06:06:15;98769.44;;;-2.75;100.00
52319;BME280;38258;51.148;14.068;2023-04-06T06:09:03;98763.25;;;-2.54;100.00
52319;BME280;38258;51.148;14.068;2023-04-06T06:11:34;98767.25;;;-2.33;100.00
52319;BME280;38258;51.148;14.068;2023-04-06T06:14:02;98772.44;;;-2.32;100.00
52319;BME280;38258;51.148;14.068;2023-04-06T06:16:32;98762.56;;;-2.18;100.00
52319;BME280;38258;51.148;14.068;2023-04-06T06:19:00;98769.50;;;-1.85;100.00
52319;BME280;38258;51.148;14.068;2023-04-06T06:21:26;98765.69;;;-1.67;100.00
52319;BME280;38258;51.148;14.068;2023-04-06T06:23:53;98766.16;;;-1.48;100.00
52319;BME280;38258;51.148;14.068;2023-04-06T06:26:22;98773.03;;;-1.14;100.00
52319;BME280;38258;51.148;14.068;2023-04-06T06:28:49;98762.28;;;-0.98;100.00
52319;BME280;38258;51.148;14.068;2023-04-06T06:31:17;98762.56;;;-0.48;100.00
52319;BME280;38258;51.148;14.068;2023-04-06T06:33:46;98761.03;;;0.04;100.00
52319;BME280;38258;51.148;14.068;2023-04-06T06:36:16;98762.31;;;0.24;100.00
52319;BME280;38258;51.148;14.068;2023-04-06T06:38:43;98761.16;;;0.54;100.00
52319;BME280;38258;51.148;14.068;2023-04-06T06:41:11;98767.41;;;0.70;100.00
52319;BME280;38258;51.148;14.068;2023-04-06T06:43:39;98767.75;;;0.91;100.00
52319;BME280;38258;51.148;14.068;2023-04-06T06:46:08;98769.09;;;1.21;100.00
52319;BME280;38258;51.148;14.068;2023-04-06T06:48:35;98758.81;;;1.22;100.00
52319;BME280;38258;51.148;14.068;2023-04-06T06:51:01;98774.34;;;1.27;100.00
52319;BME280;38258;51.148;14.068;2023-04-06T06:53:28;98767.78;;;1.46;100.00
52319;BME280;38258;51.148;14.068;2023-04-06T06:55:55;98769.88;;;1.75;100.00
52319;BME280;38258;51.148;14.068;2023-04-06T06:58:22;98765.09;;;2.05;100.00
52319;BME280;38258;51.148;14.068;2023-04-06T07:00:55;98770.38;;;2.17;100.00
52319;BME280;38258;51.148;14.068;2023-04-06T07:03:23;98771.31;;;2.22;100.00
52319;BME280;38258;51.148;14.068;2023-04-06T07:05:50;98765.31;;;2.25;100.00
52319;BME280;38258;51.148;14.068;2023-04-06T07:08:20;98759.38;;;2.32;100.00
52319;BME280;38258;51.148;14.068;2023-04-06T07:10:47;98777.03;;;2.75;100.00
52319;BME280;38258;51.148;14.068;2023-04-06T07:13:14;98776.16;;;2.73;100.00
52319;BME280;38258;51.148;14.068;2023-04-06T07:15:44;98779.75;;;2.94;100.00
52319;BME280;38258;51.148;14.068;2023-04-06T07:18:13;98773.81;;;3.01;100.00
52319;BME280;38258;51.148;14.068;2023-04-06T07:20:40;98773.91;;;3.15;95.68
52319;BME280;38258;51.148;14.068;2023-04-06T07:23:07;98780.91;;;3.27;97.26
52319;BME280;38258;51.148;14.068;2023-04-06T07:25:34;98776.91;;;3.79;96.42
52319;BME280;38258;51.148;14.068;2023-04-06T07:28:01;98781.16;;;3.63;83.42
52319;BME280;38258;51.148;14.068;2023-04-06T07:30:30;98777.81;;;3.86;80.07
52319;BME280;38258;51.148;14.068;2023-04-06T07:32:58;98776.13;;;3.94;80.19
52319;BME280;38258;51.148;14.068;2023-04-06T07:35:28;98771.94;;;4.30;82.94
52319;BME280;38258;51.148;14.068;2023-04-06T07:37:56;98778.75;;;4.08;81.95
52319;BME280;38258;51.148;14.068;2023-04-06T07:40:23;98764.25;;;4.55;91.04
52319;BME280;38258;51.148;14.068;2023-04-06T07:42:52;98771.13;;;4.45;80.87
52319;BME280;38258;51.148;14.068;2023-04-06T07:45:19;98761.69;;;4.72;81.34
52319;BME280;38258;51.148;14.068;2023-04-06T07:47:46;98772.09;;;5.13;81.75
52319;BME280;38258;51.148;14.068;2023-04-06T07:50:13;98776.34;;;4.72;76.38
52319;BME280;38258;51.148;14.068;2023-04-06T07:52:42;98778.09;;;4.77;76.17
52319;BME280;38258;51.148;14.068;2023-04-06T07:55:09;98768.63;;;4.93;87.36
52319;BME280;38258;51.148;14.068;2023-04-06T07:57:36;98774.66;;;5.39;73.25
52319;BME280;38258;51.148;14.068;2023-04-06T08:00:03;98765.06;;;5.82;72.33
52319;BME280;38258;51.148;14.068;2023-04-06T08:02:37;98772.91;;;5.55;66.33
52319;BME280;38258;51.148;14.068;2023-04-06T08:05:05;98772.91;;;5.44;66.46
52319;BME280;38258;51.148;14.068;2023-04-06T08:07:32;98777.16;;;5.78;63.95
52319;BME280;38258;51.148;14.068;2023-04-06T08:10:00;98778.97;;;5.57;70.08
52319;BME280;38258;51.148;14.068;2023-04-06T08:12:27;98780.63;;;5.80;66.01
52319;BME280;38258;51.148;14.068;2023-04-06T08:14:54;98771.97;;;5.78;66.50
52319;BME280;38258;51.148;14.068;2023-04-06T08:17:22;98778.06;;;5.69;65.08
52319;BME280;38258;51.148;14.068;2023-04-06T08:19:49;98779.72;;;6.04;56.95
52319;BME280;38258;51.148;14.068;2023-04-06T08:22:16;98754.50;;;6.30;53.76
52319;BME280;38258;51.148;14.068;2023-04-06T08:24:42;98770.72;;;6.72;55.49
52319;BME280;38258;51.148;14.068;2023-04-06T08:27:11;98771.88;;;6.14;56.36
52319;BME280;38258;51.148;14.068;2023-04-06T08:29:39;98773.63;;;6.12;60.18
52319;BME280;38258;51.148;14.068;2023-04-06T08:32:06;98775.31;;;6.27;58.03
52319;BME280;38258;51.148;14.068;2023-04-06T08:34:33;98769.53;;;7.18;57.04
52319;BME280;38258;51.148;14.068;2023-04-06T08:37:00;98772.03;;;7.28;56.85
52319;BME280;38258;51.148;14.068;2023-04-06T08:39:27;98774.81;;;7.04;50.52
52319;BME280;38258;51.148;14.068;2023-04-06T08:41:56;98771.47;;;6.91;51.84
52319;BME280;38258;51.148;14.068;2023-04-06T08:44:26;98775.53;;;7.25;54.34
52319;BME280;38258;51.148;14.068;2023-04-06T08:46:53;98764.88;;;7.53;53.00
52319;BME280;38258;51.148;14.068;2023-04-06T08:49:20;98763.03;;;7.60;47.90
52319;BME280;38258;51.148;14.068;2023-04-06T08:51:48;98772.72;;;7.48;49.80
52319;BME280;38258;51.148;14.068;2023-04-06T08:54:16;98782.44;;;7.28;51.98
52319;BME280;38258;51.148;14.068;2023-04-06T08:56:43;98770.16;;;8.89;52.43
52319;BME280;38258;51.148;14.068;2023-04-06T08:59:09;98767.19;;;8.53;49.54
52319;BME280;38258;51.148;14.068;2023-04-06T09:01:40;98776.84;;;7.70;47.32
52319;BME280;38258;51.148;14.068;2023-04-06T09:04:07;98775.69;;;7.03;50.53
52319;BME280;38258;51.148;14.068;2023-04-06T09:06:36;98767.69;;;8.79;47.37
52319;BME280;38258;51.148;14.068;2023-04-06T09:09:03;98771.09;;;8.16;53.54
52319;BME280;38258;51.148;14.068;2023-04-06T09:11:42;98765.94;;;8.12;46.52
52319;BME280;38258;51.148;14.068;2023-04-06T09:14:08;98762.19;;;9.51;49.55
52319;BME280;38258;51.148;14.068;2023-04-06T09:16:40;98761.41;;;8.28;47.34
52319;BME280;38258;51.148;14.068;2023-04-06T09:19:07;98763.56;;;7.91;46.80
52319;BME280;38258;51.148;14.068;2023-04-06T09:21:34;98738.09;;;8.17;45.14
52319;BME280;38258;51.148;14.068;2023-04-06T09:24:03;98763.09;;;6.43;52.88
52319;BME280;38258;51.148;14.068;2023-04-06T09:26:30;98775.41;;;6.02;54.34
52319;BME280;38258;51.148;14.068;2023-04-06T09:28:59;98753.72;;;6.14;52.27
52319;BME280;38258;51.148;14.068;2023-04-06T09:31:28;98743.34;;;6.12;52.33
52319;BME280;38258;51.148;14.068;2023-04-06T09:33:56;98756.31;;;6.12;52.01
52319;BME280;38258;51.148;14.068;2023-04-06T09:36:30;98764.97;;;6.13;52.05
52319;BME280;38258;51.148;14.068;2023-04-06T09:38:59;98748.56;;;6.03;52.75
52319;BME280;38258;51.148;14.068;2023-04-06T09:41:27;98749.50;;;5.78;49.37
52319;BME280;38258;51.148;14.068;2023-04-06T09:44:02;98764.19;;;5.73;51.93
52319;BME280;38258;51.148;14.068;2023-04-06T09:46:31;98745.19;;;5.65;50.92
52319;BME280;38258;51.148;14.068;2023-04-06T09:49:01;98757.28;;;5.72;51.21
52319;BME280;38258;51.148;14.068;2023-04-06T09:51:30;98754.78;;;5.38;50.71
52319;BME280;38258;51.148;14.068;2023-04-06T09:53:59;98753.00;;;5.65;51.79
52319;BME280;38258;51.148;14.068;2023-04-06T09:56:31;98750.41;;;5.52;52.18
52319;BME280;38258;51.148;14.068;2023-04-06T09:59:03;98751.16;;;5.93;51.98
52319;BME280;38258;51.148;14.068;2023-04-06T10:01:33;98753.75;;;6.00;49.81
52319;BME280;38258;51.148;14.068;2023-04-06T10:04:09;98750.09;;;6.43;49.56
52319;BME280;38258;51.148;14.068;2023-04-06T10:06:39;98747.78;;;5.77;54.47
52319;BME280;38258;51.148;14.068;2023-04-06T10:09:07;98745.25;;;5.46;50.54
52319;BME280;38258;51.148;14.068;2023-04-06T10:11:35;98750.28;;;5.96;50.36
52319;BME280;38258;51.148;14.068;2023-04-06T10:14:02;98750.28;;;6.10;51.23
52319;BME280;38258;51.148;14.068;2023-04-06T10:16:29;98746.81;;;5.99;50.03
52319;BME280;38258;51.148;14.068;2023-04-06T10:19:01;98753.50;;;6.53;47.45
52319;BME280;38258;51.148;14.068;2023-04-06T10:21:32;98750.56;;;7.02;50.46
52319;BME280;38258;51.148;14.068;2023-04-06T10:24:00;98745.50;;;6.87;49.17
52319;BME280;38258;51.148;14.068;2023-04-06T10:26:28;98746.34;;;6.89;49.19
52319;BME280;38258;51.148;14.068;2023-04-06T10:28:54;98741.88;;;7.05;46.20
52319;BME280;38258;51.148;14.068;2023-04-06T10:31:24;98742.09;;;6.75;44.72
52319;BME280;38258;51.148;14.068;2023-04-06T10:33:55;98744.84;;;6.50;44.71
52319;BME280;38258;51.148;14.068;2023-04-06T10:36:24;98747.44;;;6.50;46.06
52319;BME280;38258;51.148;14.068;2023-04-06T10:38:58;98737.28;;;6.12;45.00
52319;BME280;38258;51.148;14.068;2023-04-06T10:41:32;98741.31;;;6.59;44.24
52319;BME280;38258;51.148;14.068;2023-04-06T10:43:59;98736.19;;;6.55;47.57
52319;BME280;38258;51.148;14.068;2023-04-06T10:46:29;98741.53;;;6.25;45.69
52319;BME280;38258;51.148;14.068;2023-04-06T10:48:56;98740.66;;;6.32;49.10
52319;BME280;38258;51.148;14.068;2023-04-06T10:51:25;98744.09;;;6.34;48.12
52319;BME280;38258;51.148;14.068;2023-04-06T10:53:54;98723.59;;;5.57;46.94
52319;BME280;38258;51.148;14.068;2023-04-06T10:56:23;98733.72;;;6.31;47.09
52319;BME280;38258;51.148;14.068;2023-04-06T10:58:53;98737.97;;;6.43;46.94
52319;BME280;38258;51.148;14.068;2023-04-06T11:01:22;98739.59;;;6.61;45.34
52319;BME280;38258;51.148;14.068;2023-04-06T11:03:50;98729.97;;;6.76;45.88
52319;BME280;38258;51.148;14.068;2023-04-06T11:06:18;98730.28;;;6.28;45.76
52319;BME280;38258;51.148;14.068;2023-04-06T11:08:45;98728.50;;;6.33;46.06
52319;BME280;38258;51.148;14.068;2023-04-06T11:11:13;98734.41;;;6.60;44.26
52319;BME280;38258;51.148;14.068;2023-04-06T11:13:43;98736.88;;;6.80;46.01
52319;BME280;38258;51.148;14.068;2023-04-06T11:16:14;98711.88;;;6.62;47.48
52319;BME280;38258;51.148;14.068;2023-04-06T11:18:52;98729.31;;;6.46;45.92
52319;BME280;38258;51.148;14.068;2023-04-06T11:21:31;98725.06;;;6.32;47.66
52319;BME280;38258;51.148;14.068;2023-04-06T11:24:04;98706.69;;;6.60;46.60
52319;BME280;38258;51.148;14.068;2023-04-06T11:26:36;98726.50;;;6.77;46.23
52319;BME280;38258;51.148;14.068;2023-04-06T11:29:04;98727.19;;;6.99;45.72
52319;BME280;38258;51.148;14.068;2023-04-06T11:31:31;98722.38;;;6.46;45.21
52319;BME280;38258;51.148;14.068;2023-04-06T11:33:58;98717.06;;;6.63;44.34
52319;BME280;38258;51.148;14.068;2023-04-06T11:36:27;98710.22;;;6.50;45.06
52319;BME280;38258;51.148;14.068;2023-04-06T11:38:56;98714.63;;;6.39;47.73
52319;BME280;38258;51.148;14.068;2023-04-06T11:41:23;98702.53;;;6.33;46.69
52319;BME280;38258;51.148;14.068;2023-04-06T11:43:50;98717.97;;;6.58;47.66
52319;BME280;38258;51.148;14.068;2023-04-06T11:46:18;98718.13;;;6.31;45.94
52319;BME280;38258;51.148;14.068;2023-04-06T11:48:46;98704.56;;;7.07;46.77
52319;BME280;38258;51.148;14.068;2023-04-06T11:51:21;98714.53;;;6.51;46.38
52319;BME280;38258;51.148;14.068;2023-04-06T11:53:48;98685.78;;;8.31;41.87
52319;BME280;38258;51.148;14.068;2023-04-06T11:56:23;98704.53;;;10.04;41.25
52319;BME280;38258;51.148;14.068;2023-04-06T11:58:50;98698.88;;;8.26;41.29
52319;BME280;38258;51.148;14.068;2023-04-06T12:01:19;98708.69;;;8.71;39.48
52319;BME280;38258;51.148;14.068;2023-04-06T12:03:45;98699.06;;;9.28;38.71
52319;BME280;38258;51.148;14.068;2023-04-06T12:06:13;98689.22;;;9.87;38.45
52319;BME280;38258;51.148;14.068;2023-04-06T12:08:40;98692.44;;;10.00;41.45
52319;BME280;38258;51.148;14.068;2023-04-06T12:11:06;98686.13;;;9.21;42.22
52319;BME280;38258;51.148;14.068;2023-04-06T12:13:33;98691.03;;;10.26;39.46
52319;BME280;38258;51.148;14.068;2023-04-06T12:16:00;98672.59;;;11.71;36.99
52319;BME280;38258;51.148;14.068;2023-04-06T12:18:29;98680.41;;;10.33;37.61
52319;BME280;38258;51.148;14.068;2023-04-06T12:20:56;98678.09;;;10.59;37.42
52319;BME280;38258;51.148;14.068;2023-04-06T12:23:23;98673.91;;;9.70;37.50
52319;BME280;38258;51.148;14.068;2023-04-06T12:25:49;98680.00;;;11.55;34.31
52319;BME280;38258;51.148;14.068;2023-04-06T12:28:17;98662.44;;;10.94;36.45
52319;BME280;38258;51.148;14.068;2023-04-06T12:30:46;98671.44;;;10.44;34.96
52319;BME280;38258;51.148;14.068;2023-04-06T12:33:13;98675.03;;;9.99;38.22
52319;BME280;38258;51.148;14.068;2023-04-06T12:35:41;98670.16;;;11.31;32.98
52319;BME280;38258;51.148;14.068;2023-04-06T12:38:09;98663.91;;;10.69;34.18
52319;BME280;38258;51.148;14.068;2023-04-06T12:40:36;98666.44;;;10.72;34.10
52319;BME280;38258;51.148;14.068;2023-04-06T12:43:03;98659.53;;;9.91;34.62
52319;BME280;38258;51.148;14.068;2023-04-06T12:45:31;98662.81;;;11.13;38.12
52319;BME280;38258;51.148;14.068;2023-04-06T12:47:58;98633.00;;;11.50;39.33
52319;BME280;38258;51.148;14.068;2023-04-06T12:50:25;98652.47;;;10.72;35.56
52319;BME280;38258;51.148;14.068;2023-04-06T12:52:53;98637.47;;;10.04;38.43
52319;BME280;38258;51.148;14.068;2023-04-06T12:55:20;98644.91;;;9.40;41.67
52319;BME280;38258;51.148;14.068;2023-04-06T12:57:47;98657.13;;;10.21;38.14